Svitzer Leixoes — CSXW6 — position and weather

sailwx.info

Track history (hours):
 
Tides and Currents Weather Stations Pressure Air Temp Water Temp Dewpoint Dewpoint Depression Visibility Wind Speed Wind Dir Waves Ship Positions

Svitzer Leixoes

Last reported at 2018-Feb-24 17:58 UTC. Time now 2018-Feb-24 18:12 UTC.
Position N 38°42' W 009°10'.

Length 29 m; draft 4.1 m.

Type: Tug. MMSI: 263622000.

Date/timePositionNaut miles runAvg speedWind from/ knotsBaromVisibWave heightAir tempDewpointWater temp
2018-Feb-24 17:58N 38°42' W 009°10'0 0.0
2018-Feb-24 17:29N 38°42' W 009°10'0 0.0
2018-Feb-24 17:00N 38°42' W 009°10'0 0.0
2018-Feb-24 16:30N 38°42' W 009°10'0 0.0
2018-Feb-24 16:00N 38°42' W 009°10'0 0.0
2018-Feb-24 15:30N 38°42' W 009°10'0 0.0
2018-Feb-24 15:00N 38°42' W 009°10'0 0.0
2018-Feb-24 14:30N 38°42' W 009°10'0 0.0
2018-Feb-24 13:59N 38°42' W 009°10'0 0.7
2018-Feb-24 13:30N 38°42' W 009°09'3 5.5
2018-Feb-24 12:58N 38°44' W 009°06'0 0.1
2018-Feb-24 12:30N 38°44' W 009°06'2 4.5
2018-Feb-24 12:00N 38°42' W 009°08'1 2.4
2018-Feb-24 11:29N 38°42' W 009°10'0 0.0
2018-Feb-24 11:00N 38°42' W 009°10'0 0.0
2018-Feb-24 10:30N 38°42' W 009°10'0 0.0
2018-Feb-24 09:59N 38°42' W 009°10'0 0.0
2018-Feb-24 09:27N 38°42' W 009°10'2 4.6
2018-Feb-24 09:00N 38°43' W 009°07'1 2.0
2018-Feb-24 08:30N 38°43' W 009°06'1 1.5
2018-Feb-24 08:01N 38°43' W 009°07'2 3.9
2018-Feb-24 07:25N 38°42' W 009°10'0 0.0
2018-Feb-24 07:00N 38°42' W 009°10'0 0.0
2018-Feb-24 06:29N 38°42' W 009°10'0 0.0
2018-Feb-24 06:00N 38°42' W 009°10'0 0.0
2018-Feb-24 05:30N 38°42' W 009°10'0 0.0
2018-Feb-24 05:00N 38°42' W 009°10'0 0.0
2018-Feb-24 04:30N 38°42' W 009°10'0 0.0
2018-Feb-24 03:57N 38°42' W 009°10'0 0.0
2018-Feb-24 03:26N 38°42' W 009°10'0 0.0
2018-Feb-24 02:59N 38°42' W 009°10'0 0.0
2018-Feb-24 02:30N 38°42' W 009°10'0 0.0
2018-Feb-24 02:00N 38°42' W 009°10'0 0.0
2018-Feb-24 01:26N 38°42' W 009°10'0 0.0
2018-Feb-24 01:00N 38°42' W 009°10'0 0.0
2018-Feb-24 00:30N 38°42' W 009°10'0 0.0
2018-Feb-23 23:59N 38°42' W 009°10'0 0.0
2018-Feb-23 23:28N 38°42' W 009°10'0 0.0
2018-Feb-23 23:00N 38°42' W 009°10'0 0.0
2018-Feb-23 22:30N 38°42' W 009°10'0 0.0
2018-Feb-23 22:00N 38°42' W 009°10'0 0.5
2018-Feb-23 21:30N 38°42' W 009°09'3 6.0
2018-Feb-23 21:00N 38°44' W 009°06'1 1.7
2018-Feb-23 20:30N 38°43' W 009°07'4 7.9
2018-Feb-23 20:01N 38°41' W 009°11'1 2.5
2018-Feb-23 19:30N 38°42' W 009°10'0 0.8
2018-Feb-23 18:59N 38°42' W 009°10'0 0.0
2018-Feb-23 18:30N 38°42' W 009°10'0 0.0
2018-Feb-23 17:55N 38°42' W 009°10'0 0.0
2018-Feb-23 17:25N 38°42' W 009°10'0 0.0
2018-Feb-23 16:54N 38°42' W 009°10'0 0.0
2018-Feb-23 16:27N 38°42' W 009°10'0 0.0
2018-Feb-23 15:55N 38°42' W 009°10'0 0.0
2018-Feb-23 15:27N 38°42' W 009°10'0 0.0
2018-Feb-23 15:00N 38°42' W 009°10'0 0.0
2018-Feb-23 14:25N 38°42' W 009°10'0 0.0
2018-Feb-23 14:00N 38°42' W 009°10'0 0.0
2018-Feb-23 13:28N 38°42' W 009°10'0 0.0
2018-Feb-23 12:58N 38°42' W 009°10'0 0.0
2018-Feb-23 12:27N 38°42' W 009°10'0 0.0
2018-Feb-23 11:57N 38°42' W 009°10'0 0.0
2018-Feb-23 11:30N 38°42' W 009°10'0 0.0
2018-Feb-23 11:00N 38°42' W 009°10'2 3.2
2018-Feb-23 10:30N 38°41' W 009°11'1 1.1
2018-Feb-23 10:00N 38°41' W 009°12'1 1.7
2018-Feb-23 09:30N 38°41' W 009°13'3 5.9
2018-Feb-23 09:00N 38°42' W 009°10'0 0.0
2018-Feb-23 08:29N 38°42' W 009°10'0 0.0
2018-Feb-23 08:00N 38°42' W 009°10'1 1.5
2018-Feb-23 07:30N 38°42' W 009°10'2 4.2
2018-Feb-23 07:00N 38°41' W 009°13'2 4.7
2018-Feb-23 06:30N 38°42' W 009°10'0 0.7
2018-Feb-23 05:52N 38°42' W 009°10'0 0.0
2018-Feb-23 05:30N 38°42' W 009°10'0 0.0
2018-Feb-23 05:00N 38°42' W 009°10'0 0.0
2018-Feb-23 04:30N 38°42' W 009°10'0 0.0
2018-Feb-23 04:00N 38°42' W 009°10'0 0.0
2018-Feb-23 03:30N 38°42' W 009°10'0 0.0
2018-Feb-23 03:00N 38°42' W 009°10'0 0.0
2018-Feb-23 02:30N 38°42' W 009°10'0 0.0
2018-Feb-23 02:00N 38°42' W 009°10'0 0.0
2018-Feb-23 01:30N 38°42' W 009°10'0 0.0
2018-Feb-23 01:00N 38°42' W 009°10'0 0.0
2018-Feb-23 00:30N 38°42' W 009°10'0 0.0
2018-Feb-23 00:00N 38°42' W 009°10'0 0.0
2018-Feb-22 23:30N 38°42' W 009°10'0 0.6
2018-Feb-22 23:00N 38°42' W 009°10'2 4.6
2018-Feb-22 22:31N 38°41' W 009°12'5 9.1
2018-Feb-22 22:00N 38°43' W 009°07'2 3.9
2018-Feb-22 21:30N 38°42' W 009°09'0 0.4
2018-Feb-22 21:00N 38°42' W 009°10'0 0.0
2018-Feb-22 20:30N 38°42' W 009°10'0 0.0
2018-Feb-22 20:00N 38°42' W 009°10'0 0.4
2018-Feb-22 19:30N 38°42' W 009°09'3 5.8
2018-Feb-22 19:01N 38°44' W 009°06'0 0.5
2018-Feb-22 18:30N 38°43' W 009°06'3 5.7
2018-Feb-22 18:01N 38°42' W 009°10'0 0.0
2018-Feb-22 17:30N 38°42' W 009°10'0 0.0
2018-Feb-22 17:00N 38°42' W 009°10'0 0.0
2018-Feb-22 16:30N 38°42' W 009°10'0 0.0
2018-Feb-22 15:58N 38°42' W 009°10'0 0.0
2018-Feb-22 15:30N 38°42' W 009°10'0 0.0
2018-Feb-22 14:57N 38°42' W 009°10'0 0.0
2018-Feb-22 14:30N 38°42' W 009°10'0 0.0
2018-Feb-22 13:57N 38°42' W 009°10'0 0.0
2018-Feb-22 13:29N 38°42' W 009°10'0 0.0
2018-Feb-22 13:00N 38°42' W 009°10'0 0.0
2018-Feb-22 12:28N 38°42' W 009°10'0 0.0
2018-Feb-22 12:00N 38°42' W 009°10'0 0.0
2018-Feb-22 11:30N 38°42' W 009°10'0 0.0
2018-Feb-22 11:00N 38°42' W 009°10'0 0.0
2018-Feb-22 10:21N 38°42' W 009°10'0 0.0
2018-Feb-22 10:00N 38°42' W 009°10'0 0.0
2018-Feb-22 09:28N 38°42' W 009°10'0 0.0
2018-Feb-22 08:57N 38°42' W 009°10'0 0.0
2018-Feb-22 08:28N 38°42' W 009°10'0 0.0
2018-Feb-22 07:58N 38°42' W 009°10'0 0.0
2018-Feb-22 07:30N 38°42' W 009°10'0 0.0
2018-Feb-22 06:59N 38°42' W 009°10'0 0.0
2018-Feb-22 06:30N 38°42' W 009°10'0 0.0
2018-Feb-22 06:00N 38°42' W 009°10'0 0.0
2018-Feb-22 05:30N 38°42' W 009°10'0 0.0
2018-Feb-22 05:00N 38°42' W 009°10'0 0.0
2018-Feb-22 04:30N 38°42' W 009°10'0 0.0
2018-Feb-22 03:57N 38°42' W 009°10'0 0.0
2018-Feb-22 03:29N 38°42' W 009°10'0 0.0
2018-Feb-22 03:00N 38°42' W 009°10'0 0.0
2018-Feb-22 02:29N 38°42' W 009°10'0 0.0
2018-Feb-22 02:00N 38°42' W 009°10'0 0.0
2018-Feb-22 01:29N 38°42' W 009°10'0 0.0
2018-Feb-22 00:59N 38°42' W 009°10'0 0.0
2018-Feb-22 00:30N 38°42' W 009°10'0 0.0
2018-Feb-21 23:58N 38°42' W 009°10'0 0.0
2018-Feb-21 23:30N 38°42' W 009°10'0 0.0
2018-Feb-21 22:59N 38°42' W 009°10'0 0.0
2018-Feb-21 22:30N 38°42' W 009°10'0 0.0
2018-Feb-21 21:59N 38°42' W 009°10'0 0.0
2018-Feb-21 21:29N 38°42' W 009°10'0 0.0
2018-Feb-21 20:59N 38°42' W 009°10'0 0.0
2018-Feb-21 20:29N 38°42' W 009°10'0 0.0
2018-Feb-21 20:00N 38°42' W 009°10'0 0.0
2018-Feb-21 19:29N 38°42' W 009°10'0 0.0
2018-Feb-21 19:00N 38°42' W 009°10'0 0.0
2018-Feb-21 18:30N 38°42' W 009°10'0 0.0
2018-Feb-21 18:00N 38°42' W 009°10'0 0.0
2018-Feb-21 17:30N 38°42' W 009°10'0 0.0
2018-Feb-21 17:00N 38°42' W 009°10'0 0.0
2018-Feb-21 16:30N 38°42' W 009°10'0 0.0
2018-Feb-21 15:59N 38°42' W 009°10'0 0.0
2018-Feb-21 15:30N 38°42' W 009°10'0 0.0
2018-Feb-21 14:59N 38°42' W 009°10'0 0.0
2018-Feb-21 14:29N 38°42' W 009°10'0 0.0
2018-Feb-21 14:00N 38°42' W 009°10'0 0.0
2018-Feb-21 13:29N 38°42' W 009°10'0 0.0
2018-Feb-21 12:59N 38°42' W 009°10'0 0.0
2018-Feb-21 12:30N 38°42' W 009°10'0 0.0
2018-Feb-21 12:00N 38°42' W 009°10'0 0.0
2018-Feb-21 11:28N 38°42' W 009°10'0 0.0
2018-Feb-21 11:00N 38°42' W 009°10'0 0.0
2018-Feb-21 10:26N 38°42' W 009°10'0 0.0
2018-Feb-21 10:00N 38°42' W 009°10'0 0.0
2018-Feb-21 09:30N 38°42' W 009°10'0 0.0
2018-Feb-21 09:00N 38°42' W 009°10'0 0.0
2018-Feb-21 08:30N 38°42' W 009°10'0 0.0
2018-Feb-21 08:00N 38°42' W 009°10'0 0.0
2018-Feb-21 07:27N 38°42' W 009°10'0 0.0
2018-Feb-21 07:00N 38°42' W 009°10'0 0.0
2018-Feb-21 06:28N 38°42' W 009°10'0 0.0
2018-Feb-21 06:00N 38°42' W 009°10'0 0.0
2018-Feb-21 05:29N 38°42' W 009°10'0 0.0
2018-Feb-21 04:59N 38°42' W 009°10'0 0.0
2018-Feb-21 04:30N 38°42' W 009°10'0 0.0
2018-Feb-21 04:00N 38°42' W 009°10'0 0.0
2018-Feb-21 03:28N 38°42' W 009°10'0 0.0
2018-Feb-21 03:00N 38°42' W 009°10'0 0.0
2018-Feb-21 02:30N 38°42' W 009°10'0 0.0
2018-Feb-21 02:00N 38°42' W 009°10'0 0.0
2018-Feb-21 01:30N 38°42' W 009°10'0 0.0
2018-Feb-21 00:59N 38°42' W 009°10'0 0.0
2018-Feb-21 00:29N 38°42' W 009°10'0 0.0
2018-Feb-21 00:00N 38°42' W 009°10'2 3.3
2018-Feb-20 23:30N 38°42' W 009°08'1 2.3
2018-Feb-20 22:58N 38°43' W 009°07'3 5.8
2018-Feb-20 22:30N 38°42' W 009°10'0 0.0
2018-Feb-20 22:00N 38°42' W 009°10'0 0.0
2018-Feb-20 21:31N 38°42' W 009°10'0 0.0
2018-Feb-20 21:00N 38°42' W 009°10'0 0.0
2018-Feb-20 20:30N 38°42' W 009°10'0 0.0
2018-Feb-20 20:00N 38°42' W 009°10'0 0.0
2018-Feb-20 19:28N 38°42' W 009°10'0 0.0
2018-Feb-20 18:57N 38°42' W 009°10'0 0.0
2018-Feb-20 18:29N 38°42' W 009°10'0 0.0
2018-Feb-20 17:58N 38°42' W 009°10'0 0.0
2018-Feb-20 17:28N 38°42' W 009°10'0 0.0
2018-Feb-20 17:00N 38°42' W 009°10'2 3.4
2018-Feb-20 16:30N 38°41' W 009°09'1 2.2
2018-Feb-20 16:00N 38°41' W 009°08'1 1.4
2018-Feb-20 15:30N 38°41' W 009°08'1 1.4
2018-Feb-20 14:59N 38°40' W 009°09'1 3.0
2018-Feb-20 14:30N 38°42' W 009°09'1 1.5
2018-Feb-20 13:57N 38°42' W 009°10'0 0.0
2018-Feb-20 13:28N 38°42' W 009°10'0 0.0
2018-Feb-20 12:59N 38°42' W 009°10'0 0.0
2018-Feb-20 12:28N 38°42' W 009°10'0 0.0
2018-Feb-20 09:44N 38°42' W 009°10'0 0.0
2018-Feb-20 09:12N 38°42' W 009°10'0 0.0
2018-Feb-20 08:58N 38°42' W 009°10'0 0.7
2018-Feb-20 08:27N 38°42' W 009°10'0 0.4
2018-Feb-20 07:59N 38°42' W 009°10'1 1.8
2018-Feb-20 07:29N 38°41' W 009°11'0 0.9
2018-Feb-20 07:00N 38°42' W 009°10'0 0.0
2018-Feb-20 06:30N 38°42' W 009°10'2 2.6
2018-Feb-20 05:53N 38°41' W 009°12'1 1.4
2018-Feb-20 04:58N 38°41' W 009°13'3 7.6
2018-Feb-20 04:30N 38°42' W 009°09'0 0.4
2018-Feb-20 04:00N 38°42' W 009°10'0 0.0
2018-Feb-20 03:30N 38°42' W 009°10'0 0.0
2018-Feb-20 03:00N 38°42' W 009°10'0 0.0
2018-Feb-20 02:30N 38°42' W 009°10'0 0.0
2018-Feb-20 02:00N 38°42' W 009°10'0 0.0
2018-Feb-20 01:30N 38°42' W 009°10'0 0.0
2018-Feb-19 21:54N 38°42' W 009°10'0 0.0
2018-Feb-19 21:22N 38°42' W 009°10'0 0.0
2018-Feb-19 21:00N 38°42' W 009°10'0 0.0
2018-Feb-19 20:30N 38°42' W 009°10'0 0.0
2018-Feb-19 19:59N 38°42' W 009°10'0 0.0
2018-Feb-19 19:30N 38°42' W 009°10'1 1.4
2018-Feb-19 19:01N 38°42' W 009°09'2 2.1
2018-Feb-19 18:14N 38°43' W 009°07'0 0.0
2018-Feb-19 18:00N 38°43' W 009°07'2 3.8
2018-Feb-19 17:30N 38°42' W 009°09'0 0.9
2018-Feb-19 17:00N 38°42' W 009°10'0 0.0
2018-Feb-19 16:30N 38°42' W 009°10'0 0.0
2018-Feb-19 16:00N 38°42' W 009°10'0 0.0
2018-Feb-19 15:31N 38°42' W 009°10'0 0.0
2018-Feb-19 15:00N 38°42' W 009°10'0 0.0
2018-Feb-19 14:31N 38°42' W 009°10'0 0.0
2018-Feb-19 13:59N 38°42' W 009°10'0 0.0
2018-Feb-19 13:30N 38°42' W 009°10'0 0.0
2018-Feb-19 13:00N 38°42' W 009°10'0 0.0
2018-Feb-19 12:28N 38°42' W 009°10'0 0.0
2018-Feb-19 12:00N 38°42' W 009°10'0 0.0
2018-Feb-19 11:28N 38°42' W 009°10'0 0.0
2018-Feb-19 11:00N 38°42' W 009°10'0 0.0
2018-Feb-19 10:31N 38°42' W 009°10'0 0.0
2018-Feb-19 10:01N 38°42' W 009°10'0 0.0
2018-Feb-19 09:27N 38°42' W 009°10'0 0.0
2018-Feb-19 09:01N 38°42' W 009°10'0 0.0
2018-Feb-19 08:30N 38°42' W 009°10'2 3.8
2018-Feb-19 08:00N 38°43' W 009°07'1 1.1
2018-Feb-19 07:31N 38°42' W 009°08'1 2.9
2018-Feb-19 07:00N 38°42' W 009°10'0 0.0
2018-Feb-19 06:30N 38°42' W 009°10'0 0.0
2018-Feb-19 06:00N 38°42' W 009°10'0 0.0
2018-Feb-19 05:29N 38°42' W 009°10'0 0.0
2018-Feb-19 05:00N 38°42' W 009°10'0 0.0
2018-Feb-19 04:30N 38°42' W 009°10'0 0.0
2018-Feb-19 04:00N 38°42' W 009°10'0 0.0
2018-Feb-19 03:29N 38°42' W 009°10'0 0.0
2018-Feb-19 03:00N 38°42' W 009°10'0 0.0
2018-Feb-19 02:30N 38°42' W 009°10'0 0.0
2018-Feb-19 02:00N 38°42' W 009°10'0 0.0
2018-Feb-19 01:30N 38°42' W 009°10'0 0.0
2018-Feb-19 01:00N 38°42' W 009°10'0 0.0
2018-Feb-19 00:28N 38°42' W 009°10'0 0.0
2018-Feb-19 00:00N 38°42' W 009°10'0 0.0
2018-Feb-18 23:30N 38°42' W 009°10'0 0.0
2018-Feb-18 23:01N 38°42' W 009°10'0 0.0
2018-Feb-18 22:30N 38°42' W 009°10'0 0.0
2018-Feb-18 22:00N 38°42' W 009°10'0 0.0
2018-Feb-18 21:30N 38°42' W 009°10'0 0.0
2018-Feb-18 21:00N 38°42' W 009°10'0 0.0
2018-Feb-18 20:29N 38°42' W 009°10'0 0.0
2018-Feb-18 20:00N 38°42' W 009°10'0 0.0
2018-Feb-18 19:30N 38°42' W 009°10'0 0.0
2018-Feb-18 18:58N 38°42' W 009°10'0 0.0
2018-Feb-18 18:29N 38°42' W 009°10'0 0.0
2018-Feb-18 18:00N 38°42' W 009°10'0 0.0
2018-Feb-18 17:30N 38°42' W 009°10'0 0.0
2018-Feb-18 17:00N 38°42' W 009°10'0 0.0
2018-Feb-18 16:30N 38°42' W 009°10'0 0.0
2018-Feb-18 16:00N 38°42' W 009°10'0 0.0
2018-Feb-18 15:30N 38°42' W 009°10'0 0.0
2018-Feb-18 14:57N 38°42' W 009°10'0 0.0
2018-Feb-18 14:30N 38°42' W 009°10'0 0.0
2018-Feb-18 14:00N 38°42' W 009°10'0 0.0
2018-Feb-18 13:30N 38°42' W 009°10'0 0.0
2018-Feb-18 13:00N 38°42' W 009°10'0 0.0
2018-Feb-18 12:30N 38°42' W 009°10'0 0.0
2018-Feb-18 12:00N 38°42' W 009°10'0 0.0
2018-Feb-18 11:29N 38°42' W 009°10'0 0.0
2018-Feb-18 11:00N 38°42' W 009°10'0 0.0
2018-Feb-18 10:30N 38°42' W 009°10'0 0.0
2018-Feb-18 10:00N 38°42' W 009°10'0 0.0
2018-Feb-18 09:29N 38°42' W 009°10'0 0.0
2018-Feb-18 09:00N 38°42' W 009°10'0 0.0
2018-Feb-18 08:30N 38°42' W 009°10'0 0.0
2018-Feb-18 08:00N 38°42' W 009°10'0 0.0
2018-Feb-18 07:30N 38°42' W 009°10'0 0.0
2018-Feb-18 07:00N 38°42' W 009°10'0 0.0
2018-Feb-18 06:30N 38°42' W 009°10'0 0.0
2018-Feb-18 06:00N 38°42' W 009°10'0 0.0
2018-Feb-18 05:30N 38°42' W 009°10'0 0.0
2018-Feb-18 05:00N 38°42' W 009°10'0 0.0
2018-Feb-18 04:30N 38°42' W 009°10'0 0.0
2018-Feb-18 04:00N 38°42' W 009°10'0 0.0
2018-Feb-18 03:30N 38°42' W 009°10'0 0.0
2018-Feb-18 02:59N 38°42' W 009°10'0 0.0
2018-Feb-18 02:28N 38°42' W 009°10'0 0.0
2018-Feb-18 02:00N 38°42' W 009°10'0 0.0
2018-Feb-18 01:30N 38°42' W 009°10'0 0.0
2018-Feb-18 01:00N 38°42' W 009°10'0 0.0
2018-Feb-18 00:30N 38°42' W 009°10'0 0.0
2018-Feb-18 00:00N 38°42' W 009°10'0 0.0
2018-Feb-17 23:29N 38°42' W 009°10'0 0.0
2018-Feb-17 22:58N 38°42' W 009°10'0 0.0
2018-Feb-17 22:29N 38°42' W 009°10'0 0.0
2018-Feb-17 22:00N 38°42' W 009°10'0 0.0
2018-Feb-17 21:30N 38°42' W 009°10'0 0.0
2018-Feb-17 20:59N 38°42' W 009°10'0 0.0
2018-Feb-17 20:30N 38°42' W 009°10'0 0.0
2018-Feb-17 20:00N 38°42' W 009°10'0 0.0
2018-Feb-17 19:30N 38°42' W 009°10'0 0.0
2018-Feb-17 19:00N 38°42' W 009°10'0 0.0
2018-Feb-17 18:30N 38°42' W 009°10'0 0.0
2018-Feb-17 17:57N 38°42' W 009°10'0 0.0
2018-Feb-17 17:29N 38°42' W 009°10'0 0.0
2018-Feb-17 16:58N 38°42' W 009°10'0 0.0
2018-Feb-17 16:30N 38°42' W 009°10'0 0.0
2018-Feb-17 15:58N 38°42' W 009°10'0 0.0
2018-Feb-17 15:29N 38°42' W 009°10'0 0.0
2018-Feb-17 14:58N 38°42' W 009°10'0 0.0
2018-Feb-17 14:30N 38°42' W 009°10'0 0.0
2018-Feb-17 14:00N 38°42' W 009°10'0 0.0
2018-Feb-17 13:27N 38°42' W 009°10'0 0.0
2018-Feb-17 13:00N 38°42' W 009°10'0 0.0
2018-Feb-17 12:30N 38°42' W 009°10'0 0.0
2018-Feb-17 11:59N 38°42' W 009°10'0 0.0
2018-Feb-17 11:29N 38°42' W 009°10'0 0.0
2018-Feb-17 11:00N 38°42' W 009°10'0 0.0
2018-Feb-17 10:29N 38°42' W 009°10'0 0.0
2018-Feb-17 10:00N 38°42' W 009°10'0 0.0
2018-Feb-17 09:29N 38°42' W 009°10'0 0.0
2018-Feb-17 09:00N 38°42' W 009°10'0 0.0
2018-Feb-17 08:29N 38°42' W 009°10'0 0.0
2018-Feb-17 07:59N 38°42' W 009°10'0 0.0
2018-Feb-17 07:30N 38°42' W 009°10'0 0.0
2018-Feb-17 06:59N 38°42' W 009°10'0 0.0
2018-Feb-17 06:29N 38°42' W 009°10'0 0.0
2018-Feb-17 05:59N 38°42' W 009°10'0 0.0
2018-Feb-17 05:30N 38°42' W 009°10'0 0.0
2018-Feb-17 05:00N 38°42' W 009°10'0 0.0
2018-Feb-17 04:30N 38°42' W 009°10'0 0.0
2018-Feb-17 03:59N 38°42' W 009°10'0 0.0
2018-Feb-17 03:28N 38°42' W 009°10'0 0.0
2018-Feb-17 02:59N 38°42' W 009°10'0 0.0
2018-Feb-17 02:26N 38°42' W 009°10'0 0.0
2018-Feb-17 01:58N 38°42' W 009°10'0 0.0
2018-Feb-17 01:30N 38°42' W 009°10'0 0.0
2018-Feb-17 01:00N 38°42' W 009°10'0 0.0
2018-Feb-17 00:30N 38°42' W 009°10'0 0.0
2018-Feb-17 00:00N 38°42' W 009°10'0 0.0
2018-Feb-16 23:30N 38°42' W 009°10'0 0.0
2018-Feb-16 22:56N 38°42' W 009°10'0 0.0
2018-Feb-16 22:30N 38°42' W 009°10'0 0.0
2018-Feb-16 21:59N 38°42' W 009°10'0 0.0
2018-Feb-16 21:25N 38°42' W 009°10'0 0.0
2018-Feb-16 21:00N 38°42' W 009°10'0 0.0
2018-Feb-16 20:28N 38°42' W 009°10'0 0.0
2018-Feb-16 19:57N 38°42' W 009°10'0 0.0
2018-Feb-16 19:29N 38°42' W 009°10'0 0.0
2018-Feb-16 19:00N 38°42' W 009°10'0 0.0
2018-Feb-16 18:27N 38°42' W 009°10'0 0.0
2018-Feb-16 18:00N 38°42' W 009°10'0 0.0
2018-Feb-16 17:29N 38°42' W 009°10'0 0.0
2018-Feb-16 16:58N 38°42' W 009°10'0 0.0
2018-Feb-16 16:29N 38°42' W 009°10'0 0.0
2018-Feb-16 15:58N 38°42' W 009°10'0 0.0
2018-Feb-16 15:28N 38°42' W 009°10'0 0.0
2018-Feb-16 15:00N 38°42' W 009°10'0 0.0
2018-Feb-16 14:28N 38°42' W 009°10'0 0.0
2018-Feb-16 14:00N 38°42' W 009°10'0 0.0
2018-Feb-16 13:28N 38°42' W 009°10'0 0.0
2018-Feb-16 12:57N 38°42' W 009°10'0 0.0
2018-Feb-16 12:30N 38°42' W 009°10'2 3.4
2018-Feb-16 12:00N 38°41' W 009°11'0 0.0
2018-Feb-16 11:29N 38°41' W 009°11'0 0.0
2018-Feb-16 11:00N 38°41' W 009°11'0 0.0
2018-Feb-16 10:30N 38°41' W 009°11'0 0.0
2018-Feb-16 10:00N 38°41' W 009°11'0 0.1
2018-Feb-16 09:30N 38°41' W 009°11'2 3.2
2018-Feb-16 08:59N 38°42' W 009°10'0 0.0
2018-Feb-16 08:30N 38°42' W 009°10'0 0.1
2018-Feb-16 08:00N 38°42' W 009°10'0 0.0
2018-Feb-16 07:30N 38°42' W 009°10'0 0.0
2018-Feb-16 06:57N 38°42' W 009°10'0 0.0
2018-Feb-16 06:23N 38°42' W 009°10'0 0.0
2018-Feb-16 06:00N 38°42' W 009°10'0 0.0
2018-Feb-16 05:30N 38°42' W 009°10'0 0.0
2018-Feb-16 04:59N 38°42' W 009°10'0 0.0
2018-Feb-16 04:30N 38°42' W 009°10'0 0.0
2018-Feb-16 03:56N 38°42' W 009°10'0 0.0
2018-Feb-16 03:30N 38°42' W 009°10'0 0.0
2018-Feb-16 03:00N 38°42' W 009°10'0 0.0
2018-Feb-16 02:29N 38°42' W 009°10'0 0.0
2018-Feb-16 02:00N 38°42' W 009°10'0 0.0
2018-Feb-16 01:28N 38°42' W 009°10'0 0.0
2018-Feb-16 01:00N 38°42' W 009°10'0 0.0
2018-Feb-16 00:29N 38°42' W 009°10'0 0.0
2018-Feb-16 00:00N 38°42' W 009°10'0 0.0
2018-Feb-15 23:30N 38°42' W 009°10'0 0.0
2018-Feb-15 23:00N 38°42' W 009°10'0 0.0
2018-Feb-15 22:25N 38°42' W 009°10'0 0.0
2018-Feb-15 21:59N 38°42' W 009°10'0 0.0
2018-Feb-15 21:30N 38°42' W 009°10'0 0.0
2018-Feb-15 21:00N 38°42' W 009°10'0 0.4
2018-Feb-15 20:30N 38°42' W 009°09'0 1.0
2018-Feb-15 20:00N 38°42' W 009°10'0 0.7
2018-Feb-15 19:29N 38°42' W 009°10'0 0.0
2018-Feb-15 19:00N 38°42' W 009°10'0 0.0
2018-Feb-15 18:30N 38°42' W 009°10'0 0.0
2018-Feb-15 18:00N 38°42' W 009°10'0 0.0
2018-Feb-15 17:30N 38°42' W 009°10'0 0.0
2018-Feb-15 17:00N 38°42' W 009°10'0 0.0
2018-Feb-15 16:30N 38°42' W 009°10'0 0.0
2018-Feb-15 16:00N 38°42' W 009°10'0 0.0
2018-Feb-15 15:27N 38°42' W 009°10'0 0.0
2018-Feb-15 15:00N 38°42' W 009°10'0 0.0
2018-Feb-15 14:30N 38°42' W 009°10'0 0.0
2018-Feb-15 14:00N 38°42' W 009°10'0 0.0
2018-Feb-15 13:30N 38°42' W 009°10'0 0.0
2018-Feb-15 13:00N 38°42' W 009°10'0 0.0
2018-Feb-15 12:30N 38°42' W 009°10'0 0.0
2018-Feb-15 12:00N 38°42' W 009°10'0 0.0
2018-Feb-15 11:28N 38°42' W 009°10'0 0.0
2018-Feb-15 10:59N 38°42' W 009°10'0 0.0
2018-Feb-15 10:30N 38°42' W 009°10'0 0.0
2018-Feb-15 10:00N 38°42' W 009°10'0 0.0
2018-Feb-15 09:30N 38°42' W 009°10'0 0.0
2018-Feb-15 09:00N 38°42' W 009°10'0 0.0
2018-Feb-15 08:30N 38°42' W 009°10'0 0.0
2018-Feb-15 08:00N 38°42' W 009°10'0 0.0
2018-Feb-15 07:29N 38°42' W 009°10'0 0.0
2018-Feb-15 07:00N 38°42' W 009°10'0 0.0
2018-Feb-15 06:25N 38°42' W 009°10'0 0.0
2018-Feb-15 06:00N 38°42' W 009°10'0 0.0
2018-Feb-15 05:27N 38°42' W 009°10'0 0.0
2018-Feb-15 04:59N 38°42' W 009°10'0 0.0
2018-Feb-15 04:30N 38°42' W 009°10'0 0.0
2018-Feb-15 04:00N 38°42' W 009°10'0 0.0
2018-Feb-15 03:29N 38°42' W 009°10'0 0.0
2018-Feb-15 03:00N 38°42' W 009°10'0 0.0
2018-Feb-15 02:30N 38°42' W 009°10'0 0.0
2018-Feb-15 01:59N 38°42' W 009°10'0 0.0
2018-Feb-15 01:30N 38°42' W 009°10'0 0.0
2018-Feb-15 01:00N 38°42' W 009°10'0 0.0
2018-Feb-15 00:30N 38°42' W 009°10'0 0.0
2018-Feb-14 23:58N 38°42' W 009°10'0 0.0
2018-Feb-14 23:30N 38°42' W 009°10'0 0.0
2018-Feb-14 22:58N 38°42' W 009°10'0 0.0
2018-Feb-14 22:30N 38°42' W 009°10'0 0.0
2018-Feb-14 22:00N 38°42' W 009°10'0 0.0
2018-Feb-14 21:30N 38°42' W 009°10'0 0.0
2018-Feb-14 20:57N 38°42' W 009°10'0 0.0
2018-Feb-14 20:30N 38°42' W 009°10'0 0.0
2018-Feb-14 20:00N 38°42' W 009°10'0 0.0
2018-Feb-14 19:30N 38°42' W 009°10'0 0.0
2018-Feb-14 19:00N 38°42' W 009°10'0 0.0
2018-Feb-14 18:30N 38°42' W 009°10'  
Track history (hours):
 
Tides and Currents Weather Stations Pressure Air Temp Water Temp Dewpoint Dewpoint Depression Visibility Wind Speed Wind Dir Waves Ship Positions

Svitzer Leixoes

Last reported at 2018-Feb-24 17:58 UTC. Time now 2018-Feb-24 18:13 UTC.
Position N 38°42' W 009°10'.

Length 29 m; draft 4.1 m.

Type: Tug. MMSI: 263622000.

Date/timePositionNaut miles runAvg speedWind from/ knotsBaromVisibWave heightAir tempDewpointWater temp
2018-Feb-24 17:58N 38°42' W 009°10'0 0.0
2018-Feb-24 17:29N 38°42' W 009°10'0 0.0
2018-Feb-24 17:00N 38°42' W 009°10'0 0.0
2018-Feb-24 16:30N 38°42' W 009°10'0 0.0
2018-Feb-24 16:00N 38°42' W 009°10'0 0.0
2018-Feb-24 15:30N 38°42' W 009°10'0 0.0
2018-Feb-24 15:00N 38°42' W 009°10'0 0.0
2018-Feb-24 14:30N 38°42' W 009°10'0 0.0
2018-Feb-24 13:59N 38°42' W 009°10'0 0.7
2018-Feb-24 13:30N 38°42' W 009°09'3 5.5
2018-Feb-24 12:58N 38°44' W 009°06'0 0.1
2018-Feb-24 12:30N 38°44' W 009°06'2 4.5
2018-Feb-24 12:00N 38°42' W 009°08'1 2.4
2018-Feb-24 11:29N 38°42' W 009°10'0 0.0
2018-Feb-24 11:00N 38°42' W 009°10'0 0.0
2018-Feb-24 10:30N 38°42' W 009°10'0 0.0
2018-Feb-24 09:59N 38°42' W 009°10'0 0.0
2018-Feb-24 09:27N 38°42' W 009°10'2 4.6
2018-Feb-24 09:00N 38°43' W 009°07'1 2.0
2018-Feb-24 08:30N 38°43' W 009°06'1 1.5
2018-Feb-24 08:01N 38°43' W 009°07'2 3.9
2018-Feb-24 07:25N 38°42' W 009°10'0 0.0
2018-Feb-24 07:00N 38°42' W 009°10'0 0.0
2018-Feb-24 06:29N 38°42' W 009°10'0 0.0
2018-Feb-24 06:00N 38°42' W 009°10'0 0.0
2018-Feb-24 05:30N 38°42' W 009°10'0 0.0
2018-Feb-24 05:00N 38°42' W 009°10'0 0.0
2018-Feb-24 04:30N 38°42' W 009°10'0 0.0
2018-Feb-24 03:57N 38°42' W 009°10'0 0.0
2018-Feb-24 03:26N 38°42' W 009°10'0 0.0
2018-Feb-24 02:59N 38°42' W 009°10'0 0.0
2018-Feb-24 02:30N 38°42' W 009°10'0 0.0
2018-Feb-24 02:00N 38°42' W 009°10'0 0.0
2018-Feb-24 01:26N 38°42' W 009°10'0 0.0
2018-Feb-24 01:00N 38°42' W 009°10'0 0.0
2018-Feb-24 00:30N 38°42' W 009°10'0 0.0
2018-Feb-23 23:59N 38°42' W 009°10'0 0.0
2018-Feb-23 23:28N 38°42' W 009°10'0 0.0
2018-Feb-23 23:00N 38°42' W 009°10'0 0.0
2018-Feb-23 22:30N 38°42' W 009°10'0 0.0
2018-Feb-23 22:00N 38°42' W 009°10'0 0.5
2018-Feb-23 21:30N 38°42' W 009°09'3 6.0
2018-Feb-23 21:00N 38°44' W 009°06'1 1.7
2018-Feb-23 20:30N 38°43' W 009°07'4 7.9
2018-Feb-23 20:01N 38°41' W 009°11'1 2.5
2018-Feb-23 19:30N 38°42' W 009°10'0 0.8
2018-Feb-23 18:59N 38°42' W 009°10'0 0.0
2018-Feb-23 18:30N 38°42' W 009°10'0 0.0
2018-Feb-23 17:55N 38°42' W 009°10'0 0.0
2018-Feb-23 17:25N 38°42' W 009°10'0 0.0
2018-Feb-23 16:54N 38°42' W 009°10'0 0.0
2018-Feb-23 16:27N 38°42' W 009°10'0 0.0
2018-Feb-23 15:55N 38°42' W 009°10'0 0.0
2018-Feb-23 15:27N 38°42' W 009°10'0 0.0
2018-Feb-23 15:00N 38°42' W 009°10'0 0.0
2018-Feb-23 14:25N 38°42' W 009°10'0 0.0
2018-Feb-23 14:00N 38°42' W 009°10'0 0.0
2018-Feb-23 13:28N 38°42' W 009°10'0 0.0
2018-Feb-23 12:58N 38°42' W 009°10'0 0.0
2018-Feb-23 12:27N 38°42' W 009°10'0 0.0
2018-Feb-23 11:57N 38°42' W 009°10'0 0.0
2018-Feb-23 11:30N 38°42' W 009°10'0 0.0
2018-Feb-23 11:00N 38°42' W 009°10'2 3.2
2018-Feb-23 10:30N 38°41' W 009°11'1 1.1
2018-Feb-23 10:00N 38°41' W 009°12'1 1.7
2018-Feb-23 09:30N 38°41' W 009°13'3 5.9
2018-Feb-23 09:00N 38°42' W 009°10'0 0.0
2018-Feb-23 08:29N 38°42' W 009°10'0 0.0
2018-Feb-23 08:00N 38°42' W 009°10'1 1.5
2018-Feb-23 07:30N 38°42' W 009°10'2 4.2
2018-Feb-23 07:00N 38°41' W 009°13'2 4.7
2018-Feb-23 06:30N 38°42' W 009°10'0 0.7
2018-Feb-23 05:52N 38°42' W 009°10'0 0.0
2018-Feb-23 05:30N 38°42' W 009°10'0 0.0
2018-Feb-23 05:00N 38°42' W 009°10'0 0.0
2018-Feb-23 04:30N 38°42' W 009°10'0 0.0
2018-Feb-23 04:00N 38°42' W 009°10'0 0.0
2018-Feb-23 03:30N 38°42' W 009°10'0 0.0
2018-Feb-23 03:00N 38°42' W 009°10'0 0.0
2018-Feb-23 02:30N 38°42' W 009°10'0 0.0
2018-Feb-23 02:00N 38°42' W 009°10'0 0.0
2018-Feb-23 01:30N 38°42' W 009°10'0 0.0
2018-Feb-23 01:00N 38°42' W 009°10'0 0.0
2018-Feb-23 00:30N 38°42' W 009°10'0 0.0
2018-Feb-23 00:00N 38°42' W 009°10'0 0.0
2018-Feb-22 23:30N 38°42' W 009°10'0 0.6
2018-Feb-22 23:00N 38°42' W 009°10'2 4.6
2018-Feb-22 22:31N 38°41' W 009°12'5 9.1
2018-Feb-22 22:00N 38°43' W 009°07'2 3.9
2018-Feb-22 21:30N 38°42' W 009°09'0 0.4
2018-Feb-22 21:00N 38°42' W 009°10'0 0.0
2018-Feb-22 20:30N 38°42' W 009°10'0 0.0
2018-Feb-22 20:00N 38°42' W 009°10'0 0.4
2018-Feb-22 19:30N 38°42' W 009°09'3 5.8
2018-Feb-22 19:01N 38°44' W 009°06'0 0.5
2018-Feb-22 18:30N 38°43' W 009°06'3 5.7
2018-Feb-22 18:01N 38°42' W 009°10'0 0.0
2018-Feb-22 17:30N 38°42' W 009°10'0 0.0
2018-Feb-22 17:00N 38°42' W 009°10'0 0.0
2018-Feb-22 16:30N 38°42' W 009°10'0 0.0
2018-Feb-22 15:58N 38°42' W 009°10'0 0.0
2018-Feb-22 15:30N 38°42' W 009°10'0 0.0
2018-Feb-22 14:57N 38°42' W 009°10'0 0.0
2018-Feb-22 14:30N 38°42' W 009°10'0 0.0
2018-Feb-22 13:57N 38°42' W 009°10'0 0.0
2018-Feb-22 13:29N 38°42' W 009°10'0 0.0
2018-Feb-22 13:00N 38°42' W 009°10'0 0.0
2018-Feb-22 12:28N 38°42' W 009°10'0 0.0
2018-Feb-22 12:00N 38°42' W 009°10'0 0.0
2018-Feb-22 11:30N 38°42' W 009°10'0 0.0
2018-Feb-22 11:00N 38°42' W 009°10'0 0.0
2018-Feb-22 10:21N 38°42' W 009°10'0 0.0
2018-Feb-22 10:00N 38°42' W 009°10'0 0.0
2018-Feb-22 09:28N 38°42' W 009°10'0 0.0
2018-Feb-22 08:57N 38°42' W 009°10'0 0.0
2018-Feb-22 08:28N 38°42' W 009°10'0 0.0
2018-Feb-22 07:58N 38°42' W 009°10'0 0.0
2018-Feb-22 07:30N 38°42' W 009°10'0 0.0
2018-Feb-22 06:59N 38°42' W 009°10'0 0.0
2018-Feb-22 06:30N 38°42' W 009°10'0 0.0
2018-Feb-22 06:00N 38°42' W 009°10'0 0.0
2018-Feb-22 05:30N 38°42' W 009°10'0 0.0
2018-Feb-22 05:00N 38°42' W 009°10'0 0.0
2018-Feb-22 04:30N 38°42' W 009°10'0 0.0
2018-Feb-22 03:57N 38°42' W 009°10'0 0.0
2018-Feb-22 03:29N 38°42' W 009°10'0 0.0
2018-Feb-22 03:00N 38°42' W 009°10'0 0.0
2018-Feb-22 02:29N 38°42' W 009°10'0 0.0
2018-Feb-22 02:00N 38°42' W 009°10'0 0.0
2018-Feb-22 01:29N 38°42' W 009°10'0 0.0
2018-Feb-22 00:59N 38°42' W 009°10'0 0.0
2018-Feb-22 00:30N 38°42' W 009°10'0 0.0
2018-Feb-21 23:58N 38°42' W 009°10'0 0.0
2018-Feb-21 23:30N 38°42' W 009°10'0 0.0
2018-Feb-21 22:59N 38°42' W 009°10'0 0.0
2018-Feb-21 22:30N 38°42' W 009°10'0 0.0
2018-Feb-21 21:59N 38°42' W 009°10'0 0.0
2018-Feb-21 21:29N 38°42' W 009°10'0 0.0
2018-Feb-21 20:59N 38°42' W 009°10'0 0.0
2018-Feb-21 20:29N 38°42' W 009°10'0 0.0
2018-Feb-21 20:00N 38°42' W 009°10'0 0.0
2018-Feb-21 19:29N 38°42' W 009°10'0 0.0
2018-Feb-21 19:00N 38°42' W 009°10'0 0.0
2018-Feb-21 18:30N 38°42' W 009°10'0 0.0
2018-Feb-21 18:00N 38°42' W 009°10'0 0.0
2018-Feb-21 17:30N 38°42' W 009°10'0 0.0
2018-Feb-21 17:00N 38°42' W 009°10'0 0.0
2018-Feb-21 16:30N 38°42' W 009°10'0 0.0
2018-Feb-21 15:59N 38°42' W 009°10'0 0.0
2018-Feb-21 15:30N 38°42' W 009°10'0 0.0
2018-Feb-21 14:59N 38°42' W 009°10'0 0.0
2018-Feb-21 14:29N 38°42' W 009°10'0 0.0
2018-Feb-21 14:00N 38°42' W 009°10'0 0.0
2018-Feb-21 13:29N 38°42' W 009°10'0 0.0
2018-Feb-21 12:59N 38°42' W 009°10'0 0.0
2018-Feb-21 12:30N 38°42' W 009°10'0 0.0
2018-Feb-21 12:00N 38°42' W 009°10'0 0.0
2018-Feb-21 11:28N 38°42' W 009°10'0 0.0
2018-Feb-21 11:00N 38°42' W 009°10'0 0.0
2018-Feb-21 10:26N 38°42' W 009°10'0 0.0
2018-Feb-21 10:00N 38°42' W 009°10'0 0.0
2018-Feb-21 09:30N 38°42' W 009°10'0 0.0
2018-Feb-21 09:00N 38°42' W 009°10'0 0.0
2018-Feb-21 08:30N 38°42' W 009°10'0 0.0
2018-Feb-21 08:00N 38°42' W 009°10'0 0.0
2018-Feb-21 07:27N 38°42' W 009°10'0 0.0
2018-Feb-21 07:00N 38°42' W 009°10'0 0.0
2018-Feb-21 06:28N 38°42' W 009°10'0 0.0
2018-Feb-21 06:00N 38°42' W 009°10'0 0.0
2018-Feb-21 05:29N 38°42' W 009°10'0 0.0
2018-Feb-21 04:59N 38°42' W 009°10'0 0.0
2018-Feb-21 04:30N 38°42' W 009°10'0 0.0
2018-Feb-21 04:00N 38°42' W 009°10'0 0.0
2018-Feb-21 03:28N 38°42' W 009°10'0 0.0
2018-Feb-21 03:00N 38°42' W 009°10'0 0.0
2018-Feb-21 02:30N 38°42' W 009°10'0 0.0
2018-Feb-21 02:00N 38°42' W 009°10'0 0.0
2018-Feb-21 01:30N 38°42' W 009°10'0 0.0
2018-Feb-21 00:59N 38°42' W 009°10'0 0.0
2018-Feb-21 00:29N 38°42' W 009°10'0 0.0
2018-Feb-21 00:00N 38°42' W 009°10'2 3.3
2018-Feb-20 23:30N 38°42' W 009°08'1 2.3
2018-Feb-20 22:58N 38°43' W 009°07'3 5.8
2018-Feb-20 22:30N 38°42' W 009°10'0 0.0
2018-Feb-20 22:00N 38°42' W 009°10'0 0.0
2018-Feb-20 21:31N 38°42' W 009°10'0 0.0
2018-Feb-20 21:00N 38°42' W 009°10'0 0.0
2018-Feb-20 20:30N 38°42' W 009°10'0 0.0
2018-Feb-20 20:00N 38°42' W 009°10'0 0.0
2018-Feb-20 19:28N 38°42' W 009°10'0 0.0
2018-Feb-20 18:57N 38°42' W 009°10'0 0.0
2018-Feb-20 18:29N 38°42' W 009°10'0 0.0
2018-Feb-20 17:58N 38°42' W 009°10'0 0.0
2018-Feb-20 17:28N 38°42' W 009°10'0 0.0
2018-Feb-20 17:00N 38°42' W 009°10'2 3.4
2018-Feb-20 16:30N 38°41' W 009°09'1 2.2
2018-Feb-20 16:00N 38°41' W 009°08'1 1.4
2018-Feb-20 15:30N 38°41' W 009°08'1 1.4
2018-Feb-20 14:59N 38°40' W 009°09'1 3.0
2018-Feb-20 14:30N 38°42' W 009°09'1 1.5
2018-Feb-20 13:57N 38°42' W 009°10'0 0.0
2018-Feb-20 13:28N 38°42' W 009°10'0 0.0
2018-Feb-20 12:59N 38°42' W 009°10'0 0.0
2018-Feb-20 12:28N 38°42' W 009°10'0 0.0
2018-Feb-20 09:44N 38°42' W 009°10'0 0.0
2018-Feb-20 09:12N 38°42' W 009°10'0 0.0
2018-Feb-20 08:58N 38°42' W 009°10'0 0.7
2018-Feb-20 08:27N 38°42' W 009°10'0 0.4
2018-Feb-20 07:59N 38°42' W 009°10'1 1.8
2018-Feb-20 07:29N 38°41' W 009°11'0 0.9
2018-Feb-20 07:00N 38°42' W 009°10'0 0.0
2018-Feb-20 06:30N 38°42' W 009°10'2 2.6
2018-Feb-20 05:53N 38°41' W 009°12'1 1.4
2018-Feb-20 04:58N 38°41' W 009°13'3 7.6
2018-Feb-20 04:30N 38°42' W 009°09'0 0.4
2018-Feb-20 04:00N 38°42' W 009°10'0 0.0
2018-Feb-20 03:30N 38°42' W 009°10'0 0.0
2018-Feb-20 03:00N 38°42' W 009°10'0 0.0
2018-Feb-20 02:30N 38°42' W 009°10'0 0.0
2018-Feb-20 02:00N 38°42' W 009°10'0 0.0
2018-Feb-20 01:30N 38°42' W 009°10'0 0.0
2018-Feb-19 21:54N 38°42' W 009°10'0 0.0
2018-Feb-19 21:22N 38°42' W 009°10'0 0.0
2018-Feb-19 21:00N 38°42' W 009°10'0 0.0
2018-Feb-19 20:30N 38°42' W 009°10'0 0.0
2018-Feb-19 19:59N 38°42' W 009°10'0 0.0
2018-Feb-19 19:30N 38°42' W 009°10'1 1.4
2018-Feb-19 19:01N 38°42' W 009°09'2 2.1
2018-Feb-19 18:14N 38°43' W 009°07'0 0.0
2018-Feb-19 18:00N 38°43' W 009°07'2 3.8
2018-Feb-19 17:30N 38°42' W 009°09'0 0.9
2018-Feb-19 17:00N 38°42' W 009°10'0 0.0
2018-Feb-19 16:30N 38°42' W 009°10'0 0.0
2018-Feb-19 16:00N 38°42' W 009°10'0 0.0
2018-Feb-19 15:31N 38°42' W 009°10'0 0.0
2018-Feb-19 15:00N 38°42' W 009°10'0 0.0
2018-Feb-19 14:31N 38°42' W 009°10'0 0.0
2018-Feb-19 13:59N 38°42' W 009°10'0 0.0
2018-Feb-19 13:30N 38°42' W 009°10'0 0.0
2018-Feb-19 13:00N 38°42' W 009°10'0 0.0
2018-Feb-19 12:28N 38°42' W 009°10'0 0.0
2018-Feb-19 12:00N 38°42' W 009°10'0 0.0
2018-Feb-19 11:28N 38°42' W 009°10'0 0.0
2018-Feb-19 11:00N 38°42' W 009°10'0 0.0
2018-Feb-19 10:31N 38°42' W 009°10'0 0.0
2018-Feb-19 10:01N 38°42' W 009°10'0 0.0
2018-Feb-19 09:27N 38°42' W 009°10'0 0.0
2018-Feb-19 09:01N 38°42' W 009°10'0 0.0
2018-Feb-19 08:30N 38°42' W 009°10'2 3.8
2018-Feb-19 08:00N 38°43' W 009°07'1 1.1
2018-Feb-19 07:31N 38°42' W 009°08'1 2.9
2018-Feb-19 07:00N 38°42' W 009°10'0 0.0
2018-Feb-19 06:30N 38°42' W 009°10'0 0.0
2018-Feb-19 06:00N 38°42' W 009°10'0 0.0
2018-Feb-19 05:29N 38°42' W 009°10'0 0.0
2018-Feb-19 05:00N 38°42' W 009°10'0 0.0
2018-Feb-19 04:30N 38°42' W 009°10'0 0.0
2018-Feb-19 04:00N 38°42' W 009°10'0 0.0
2018-Feb-19 03:29N 38°42' W 009°10'0 0.0
2018-Feb-19 03:00N 38°42' W 009°10'0 0.0
2018-Feb-19 02:30N 38°42' W 009°10'0 0.0
2018-Feb-19 02:00N 38°42' W 009°10'0 0.0
2018-Feb-19 01:30N 38°42' W 009°10'0 0.0
2018-Feb-19 01:00N 38°42' W 009°10'0 0.0
2018-Feb-19 00:28N 38°42' W 009°10'0 0.0
2018-Feb-19 00:00N 38°42' W 009°10'0 0.0
2018-Feb-18 23:30N 38°42' W 009°10'0 0.0
2018-Feb-18 23:01N 38°42' W 009°10'0 0.0
2018-Feb-18 22:30N 38°42' W 009°10'0 0.0
2018-Feb-18 22:00N 38°42' W 009°10'0 0.0
2018-Feb-18 21:30N 38°42' W 009°10'0 0.0
2018-Feb-18 21:00N 38°42' W 009°10'0 0.0
2018-Feb-18 20:29N 38°42' W 009°10'0 0.0
2018-Feb-18 20:00N 38°42' W 009°10'0 0.0
2018-Feb-18 19:30N 38°42' W 009°10'0 0.0
2018-Feb-18 18:58N 38°42' W 009°10'0 0.0
2018-Feb-18 18:29N 38°42' W 009°10'0 0.0
2018-Feb-18 18:00N 38°42' W 009°10'0 0.0
2018-Feb-18 17:30N 38°42' W 009°10'0 0.0
2018-Feb-18 17:00N 38°42' W 009°10'0 0.0
2018-Feb-18 16:30N 38°42' W 009°10'0 0.0
2018-Feb-18 16:00N 38°42' W 009°10'0 0.0
2018-Feb-18 15:30N 38°42' W 009°10'0 0.0
2018-Feb-18 14:57N 38°42' W 009°10'0 0.0
2018-Feb-18 14:30N 38°42' W 009°10'0 0.0
2018-Feb-18 14:00N 38°42' W 009°10'0 0.0
2018-Feb-18 13:30N 38°42' W 009°10'0 0.0
2018-Feb-18 13:00N 38°42' W 009°10'0 0.0
2018-Feb-18 12:30N 38°42' W 009°10'0 0.0
2018-Feb-18 12:00N 38°42' W 009°10'0 0.0
2018-Feb-18 11:29N 38°42' W 009°10'0 0.0
2018-Feb-18 11:00N 38°42' W 009°10'0 0.0
2018-Feb-18 10:30N 38°42' W 009°10'0 0.0
2018-Feb-18 10:00N 38°42' W 009°10'0 0.0
2018-Feb-18 09:29N 38°42' W 009°10'0 0.0
2018-Feb-18 09:00N 38°42' W 009°10'0 0.0
2018-Feb-18 08:30N 38°42' W 009°10'0 0.0
2018-Feb-18 08:00N 38°42' W 009°10'0 0.0
2018-Feb-18 07:30N 38°42' W 009°10'0 0.0
2018-Feb-18 07:00N 38°42' W 009°10'0 0.0
2018-Feb-18 06:30N 38°42' W 009°10'0 0.0
2018-Feb-18 06:00N 38°42' W 009°10'0 0.0
2018-Feb-18 05:30N 38°42' W 009°10'0 0.0
2018-Feb-18 05:00N 38°42' W 009°10'0 0.0
2018-Feb-18 04:30N 38°42' W 009°10'0 0.0
2018-Feb-18 04:00N 38°42' W 009°10'0 0.0
2018-Feb-18 03:30N 38°42' W 009°10'0 0.0
2018-Feb-18 02:59N 38°42' W 009°10'0 0.0
2018-Feb-18 02:28N 38°42' W 009°10'0 0.0
2018-Feb-18 02:00N 38°42' W 009°10'0 0.0
2018-Feb-18 01:30N 38°42' W 009°10'0 0.0
2018-Feb-18 01:00N 38°42' W 009°10'0 0.0
2018-Feb-18 00:30N 38°42' W 009°10'0 0.0
2018-Feb-18 00:00N 38°42' W 009°10'0 0.0
2018-Feb-17 23:29N 38°42' W 009°10'0 0.0
2018-Feb-17 22:58N 38°42' W 009°10'0 0.0
2018-Feb-17 22:29N 38°42' W 009°10'0 0.0
2018-Feb-17 22:00N 38°42' W 009°10'0 0.0
2018-Feb-17 21:30N 38°42' W 009°10'0 0.0
2018-Feb-17 20:59N 38°42' W 009°10'0 0.0
2018-Feb-17 20:30N 38°42' W 009°10'0 0.0
2018-Feb-17 20:00N 38°42' W 009°10'0 0.0
2018-Feb-17 19:30N 38°42' W 009°10'0 0.0
2018-Feb-17 19:00N 38°42' W 009°10'0 0.0
2018-Feb-17 18:30N 38°42' W 009°10'0 0.0
2018-Feb-17 17:57N 38°42' W 009°10'0 0.0
2018-Feb-17 17:29N 38°42' W 009°10'0 0.0
2018-Feb-17 16:58N 38°42' W 009°10'0 0.0
2018-Feb-17 16:30N 38°42' W 009°10'0 0.0
2018-Feb-17 15:58N 38°42' W 009°10'0 0.0
2018-Feb-17 15:29N 38°42' W 009°10'0 0.0
2018-Feb-17 14:58N 38°42' W 009°10'0 0.0
2018-Feb-17 14:30N 38°42' W 009°10'0 0.0
2018-Feb-17 14:00N 38°42' W 009°10'0 0.0
2018-Feb-17 13:27N 38°42' W 009°10'0 0.0
2018-Feb-17 13:00N 38°42' W 009°10'0 0.0
2018-Feb-17 12:30N 38°42' W 009°10'0 0.0
2018-Feb-17 11:59N 38°42' W 009°10'0 0.0
2018-Feb-17 11:29N 38°42' W 009°10'0 0.0
2018-Feb-17 11:00N 38°42' W 009°10'0 0.0
2018-Feb-17 10:29N 38°42' W 009°10'0 0.0
2018-Feb-17 10:00N 38°42' W 009°10'0 0.0
2018-Feb-17 09:29N 38°42' W 009°10'0 0.0
2018-Feb-17 09:00N 38°42' W 009°10'0 0.0
2018-Feb-17 08:29N 38°42' W 009°10'0 0.0
2018-Feb-17 07:59N 38°42' W 009°10'0 0.0
2018-Feb-17 07:30N 38°42' W 009°10'0 0.0
2018-Feb-17 06:59N 38°42' W 009°10'0 0.0
2018-Feb-17 06:29N 38°42' W 009°10'0 0.0
2018-Feb-17 05:59N 38°42' W 009°10'0 0.0
2018-Feb-17 05:30N 38°42' W 009°10'0 0.0
2018-Feb-17 05:00N 38°42' W 009°10'0 0.0
2018-Feb-17 04:30N 38°42' W 009°10'0 0.0
2018-Feb-17 03:59N 38°42' W 009°10'0 0.0
2018-Feb-17 03:28N 38°42' W 009°10'0 0.0
2018-Feb-17 02:59N 38°42' W 009°10'0 0.0
2018-Feb-17 02:26N 38°42' W 009°10'0 0.0
2018-Feb-17 01:58N 38°42' W 009°10'0 0.0
2018-Feb-17 01:30N 38°42' W 009°10'0 0.0
2018-Feb-17 01:00N 38°42' W 009°10'0 0.0
2018-Feb-17 00:30N 38°42' W 009°10'0 0.0
2018-Feb-17 00:00N 38°42' W 009°10'0 0.0
2018-Feb-16 23:30N 38°42' W 009°10'0 0.0
2018-Feb-16 22:56N 38°42' W 009°10'0 0.0
2018-Feb-16 22:30N 38°42' W 009°10'0 0.0
2018-Feb-16 21:59N 38°42' W 009°10'0 0.0
2018-Feb-16 21:25N 38°42' W 009°10'0 0.0
2018-Feb-16 21:00N 38°42' W 009°10'0 0.0
2018-Feb-16 20:28N 38°42' W 009°10'0 0.0
2018-Feb-16 19:57N 38°42' W 009°10'0 0.0
2018-Feb-16 19:29N 38°42' W 009°10'0 0.0
2018-Feb-16 19:00N 38°42' W 009°10'0 0.0
2018-Feb-16 18:27N 38°42' W 009°10'0 0.0
2018-Feb-16 18:00N 38°42' W 009°10'0 0.0
2018-Feb-16 17:29N 38°42' W 009°10'0 0.0
2018-Feb-16 16:58N 38°42' W 009°10'0 0.0
2018-Feb-16 16:29N 38°42' W 009°10'0 0.0
2018-Feb-16 15:58N 38°42' W 009°10'0 0.0
2018-Feb-16 15:28N 38°42' W 009°10'0 0.0
2018-Feb-16 15:00N 38°42' W 009°10'0 0.0
2018-Feb-16 14:28N 38°42' W 009°10'0 0.0
2018-Feb-16 14:00N 38°42' W 009°10'0 0.0
2018-Feb-16 13:28N 38°42' W 009°10'0 0.0
2018-Feb-16 12:57N 38°42' W 009°10'0 0.0
2018-Feb-16 12:30N 38°42' W 009°10'2 3.4
2018-Feb-16 12:00N 38°41' W 009°11'0 0.0
2018-Feb-16 11:29N 38°41' W 009°11'0 0.0
2018-Feb-16 11:00N 38°41' W 009°11'0 0.0
2018-Feb-16 10:30N 38°41' W 009°11'0 0.0
2018-Feb-16 10:00N 38°41' W 009°11'0 0.1
2018-Feb-16 09:30N 38°41' W 009°11'2 3.2
2018-Feb-16 08:59N 38°42' W 009°10'0 0.0
2018-Feb-16 08:30N 38°42' W 009°10'0 0.1
2018-Feb-16 08:00N 38°42' W 009°10'0 0.0
2018-Feb-16 07:30N 38°42' W 009°10'0 0.0
2018-Feb-16 06:57N 38°42' W 009°10'0 0.0
2018-Feb-16 06:23N 38°42' W 009°10'0 0.0
2018-Feb-16 06:00N 38°42' W 009°10'0 0.0
2018-Feb-16 05:30N 38°42' W 009°10'0 0.0
2018-Feb-16 04:59N 38°42' W 009°10'0 0.0
2018-Feb-16 04:30N 38°42' W 009°10'0 0.0
2018-Feb-16 03:56N 38°42' W 009°10'0 0.0
2018-Feb-16 03:30N 38°42' W 009°10'0 0.0
2018-Feb-16 03:00N 38°42' W 009°10'0 0.0
2018-Feb-16 02:29N 38°42' W 009°10'0 0.0
2018-Feb-16 02:00N 38°42' W 009°10'0 0.0
2018-Feb-16 01:28N 38°42' W 009°10'0 0.0
2018-Feb-16 01:00N 38°42' W 009°10'0 0.0
2018-Feb-16 00:29N 38°42' W 009°10'0 0.0
2018-Feb-16 00:00N 38°42' W 009°10'0 0.0
2018-Feb-15 23:30N 38°42' W 009°10'0 0.0
2018-Feb-15 23:00N 38°42' W 009°10'0 0.0
2018-Feb-15 22:25N 38°42' W 009°10'0 0.0
2018-Feb-15 21:59N 38°42' W 009°10'0 0.0
2018-Feb-15 21:30N 38°42' W 009°10'0 0.0
2018-Feb-15 21:00N 38°42' W 009°10'0 0.4
2018-Feb-15 20:30N 38°42' W 009°09'0 1.0
2018-Feb-15 20:00N 38°42' W 009°10'0 0.7
2018-Feb-15 19:29N 38°42' W 009°10'0 0.0
2018-Feb-15 19:00N 38°42' W 009°10'0 0.0
2018-Feb-15 18:30N 38°42' W 009°10'0 0.0
2018-Feb-15 18:00N 38°42' W 009°10'0 0.0
2018-Feb-15 17:30N 38°42' W 009°10'0 0.0
2018-Feb-15 17:00N 38°42' W 009°10'0 0.0
2018-Feb-15 16:30N 38°42' W 009°10'0 0.0
2018-Feb-15 16:00N 38°42' W 009°10'0 0.0
2018-Feb-15 15:27N 38°42' W 009°10'0 0.0
2018-Feb-15 15:00N 38°42' W 009°10'0 0.0
2018-Feb-15 14:30N 38°42' W 009°10'0 0.0
2018-Feb-15 14:00N 38°42' W 009°10'0 0.0
2018-Feb-15 13:30N 38°42' W 009°10'0 0.0
2018-Feb-15 13:00N 38°42' W 009°10'0 0.0
2018-Feb-15 12:30N 38°42' W 009°10'0 0.0
2018-Feb-15 12:00N 38°42' W 009°10'0 0.0
2018-Feb-15 11:28N 38°42' W 009°10'0 0.0
2018-Feb-15 10:59N 38°42' W 009°10'0 0.0
2018-Feb-15 10:30N 38°42' W 009°10'0 0.0
2018-Feb-15 10:00N 38°42' W 009°10'0 0.0
2018-Feb-15 09:30N 38°42' W 009°10'0 0.0
2018-Feb-15 09:00N 38°42' W 009°10'0 0.0
2018-Feb-15 08:30N 38°42' W 009°10'0 0.0
2018-Feb-15 08:00N 38°42' W 009°10'0 0.0
2018-Feb-15 07:29N 38°42' W 009°10'0 0.0
2018-Feb-15 07:00N 38°42' W 009°10'0 0.0
2018-Feb-15 06:25N 38°42' W 009°10'0 0.0
2018-Feb-15 06:00N 38°42' W 009°10'0 0.0
2018-Feb-15 05:27N 38°42' W 009°10'0 0.0
2018-Feb-15 04:59N 38°42' W 009°10'0 0.0
2018-Feb-15 04:30N 38°42' W 009°10'0 0.0
2018-Feb-15 04:00N 38°42' W 009°10'0 0.0
2018-Feb-15 03:29N 38°42' W 009°10'0 0.0
2018-Feb-15 03:00N 38°42' W 009°10'0 0.0
2018-Feb-15 02:30N 38°42' W 009°10'0 0.0
2018-Feb-15 01:59N 38°42' W 009°10'0 0.0
2018-Feb-15 01:30N 38°42' W 009°10'0 0.0
2018-Feb-15 01:00N 38°42' W 009°10'0 0.0
2018-Feb-15 00:30N 38°42' W 009°10'0 0.0
2018-Feb-14 23:58N 38°42' W 009°10'0 0.0
2018-Feb-14 23:30N 38°42' W 009°10'0 0.0
2018-Feb-14 22:58N 38°42' W 009°10'0 0.0
2018-Feb-14 22:30N 38°42' W 009°10'0 0.0
2018-Feb-14 22:00N 38°42' W 009°10'0 0.0
2018-Feb-14 21:30N 38°42' W 009°10'0 0.0
2018-Feb-14 20:57N 38°42' W 009°10'0 0.0
2018-Feb-14 20:30N 38°42' W 009°10'0 0.0
2018-Feb-14 20:00N 38°42' W 009°10'0 0.0
2018-Feb-14 19:30N 38°42' W 009°10'0 0.0
2018-Feb-14 19:00N 38°42' W 009°10'0 0.0
2018-Feb-14 18:30N 38°42' W 009°10'  

Dump ship's entire track history